sensor_id;sensor_type;location;lat;lon;timestamp;P1;durP1;ratioP1;P2;durP2;ratioP2
2928;SDS011;1474;51.460;7.150;2023-07-13T00:01:51;3.20;;;0.95;;
2928;SDS011;1474;51.460;7.150;2023-07-13T00:04:18;3.97;;;1.30;;
2928;SDS011;1474;51.460;7.150;2023-07-13T00:06:48;4.43;;;1.23;;
2928;SDS011;1474;51.460;7.150;2023-07-13T00:09:15;2.53;;;1.17;;
2928;SDS011;1474;51.460;7.150;2023-07-13T00:11:43;2.70;;;1.25;;
2928;SDS011;1474;51.460;7.150;2023-07-13T00:14:12;3.88;;;1.23;;
2928;SDS011;1474;51.460;7.150;2023-07-13T00:16:40;3.40;;;0.80;;
2928;SDS011;1474;51.460;7.150;2023-07-13T00:19:08;5.03;;;1.10;;
2928;SDS011;1474;51.460;7.150;2023-07-13T00:21:36;3.05;;;1.15;;
2928;SDS011;1474;51.460;7.150;2023-07-13T00:24:03;3.20;;;0.90;;
2928;SDS011;1474;51.460;7.150;2023-07-13T00:26:30;2.97;;;1.30;;
2928;SDS011;1474;51.460;7.150;2023-07-13T00:28:57;3.70;;;1.40;;
2928;SDS011;1474;51.460;7.150;2023-07-13T00:31:24;2.15;;;1.00;;
2928;SDS011;1474;51.460;7.150;2023-07-13T00:33:49;4.35;;;1.08;;
2928;SDS011;1474;51.460;7.150;2023-07-13T00:36:15;2.17;;;0.82;;
2928;SDS011;1474;51.460;7.150;2023-07-13T00:38:41;5.57;;;1.10;;
2928;SDS011;1474;51.460;7.150;2023-07-13T00:41:07;1.75;;;0.77;;
2928;SDS011;1474;51.460;7.150;2023-07-13T00:43:34;1.35;;;0.80;;
2928;SDS011;1474;51.460;7.150;2023-07-13T00:49:05;1.80;;;0.95;;
2928;SDS011;1474;51.460;7.150;2023-07-13T00:52:10;3.17;;;1.05;;
2928;SDS011;1474;51.460;7.150;2023-07-13T00:54:39;2.47;;;0.75;;
2928;SDS011;1474;51.460;7.150;2023-07-13T00:57:11;2.63;;;0.80;;
2928;SDS011;1474;51.460;7.150;2023-07-13T00:59:43;3.10;;;0.90;;
2928;SDS011;1474;51.460;7.150;2023-07-13T01:02:14;3.22;;;0.75;;
2928;SDS011;1474;51.460;7.150;2023-07-13T01:04:41;2.83;;;1.35;;
2928;SDS011;1474;51.460;7.150;2023-07-13T01:07:09;2.95;;;0.80;;
2928;SDS011;1474;51.460;7.150;2023-07-13T01:09:37;1.92;;;0.98;;
2928;SDS011;1474;51.460;7.150;2023-07-13T01:12:02;2.67;;;1.00;;
2928;SDS011;1474;51.460;7.150;2023-07-13T01:14:29;1.88;;;0.80;;
2928;SDS011;1474;51.460;7.150;2023-07-13T01:16:55;2.75;;;0.93;;
2928;SDS011;1474;51.460;7.150;2023-07-13T01:22:13;2.55;;;0.70;;
2928;SDS011;1474;51.460;7.150;2023-07-13T01:24:42;4.85;;;1.33;;
2928;SDS011;1474;51.460;7.150;2023-07-13T01:27:14;2.08;;;0.95;;
2928;SDS011;1474;51.460;7.150;2023-07-13T01:29:45;1.45;;;0.80;;
2928;SDS011;1474;51.460;7.150;2023-07-13T01:32:17;4.00;;;1.30;;
2928;SDS011;1474;51.460;7.150;2023-07-13T01:34:53;2.42;;;0.75;;
2928;SDS011;1474;51.460;7.150;2023-07-13T01:37:19;2.70;;;1.00;;
2928;SDS011;1474;51.460;7.150;2023-07-13T01:39:46;5.38;;;1.13;;
2928;SDS011;1474;51.460;7.150;2023-07-13T01:42:12;3.95;;;1.15;;
2928;SDS011;1474;51.460;7.150;2023-07-13T01:44:39;2.85;;;0.88;;
2928;SDS011;1474;51.460;7.150;2023-07-13T01:47:05;1.85;;;0.90;;
2928;SDS011;1474;51.460;7.150;2023-07-13T01:49:31;3.42;;;1.20;;
2928;SDS011;1474;51.460;7.150;2023-07-13T01:51:57;2.58;;;1.00;;
2928;SDS011;1474;51.460;7.150;2023-07-13T01:54:23;3.17;;;0.98;;
2928;SDS011;1474;51.460;7.150;2023-07-13T01:56:49;4.22;;;1.05;;
2928;SDS011;1474;51.460;7.150;2023-07-13T01:59:14;4.05;;;0.90;;
2928;SDS011;1474;51.460;7.150;2023-07-13T02:01:40;1.55;;;0.80;;
2928;SDS011;1474;51.460;7.150;2023-07-13T02:04:06;6.00;;;1.10;;
2928;SDS011;1474;51.460;7.150;2023-07-13T02:06:31;4.63;;;1.35;;
2928;SDS011;1474;51.460;7.150;2023-07-13T02:08:58;3.45;;;0.82;;
2928;SDS011;1474;51.460;7.150;2023-07-13T02:11:24;2.60;;;0.85;;
2928;SDS011;1474;51.460;7.150;2023-07-13T02:13:57;3.90;;;0.88;;
2928;SDS011;1474;51.460;7.150;2023-07-13T02:16:26;3.88;;;1.15;;
2928;SDS011;1474;51.460;7.150;2023-07-13T02:18:52;2.60;;;0.90;;
2928;SDS011;1474;51.460;7.150;2023-07-13T02:21:18;1.75;;;0.88;;
2928;SDS011;1474;51.460;7.150;2023-07-13T02:23:43;3.35;;;1.17;;
2928;SDS011;1474;51.460;7.150;2023-07-13T02:26:09;4.00;;;1.08;;
2928;SDS011;1474;51.460;7.150;2023-07-13T02:28:35;2.38;;;1.00;;
2928;SDS011;1474;51.460;7.150;2023-07-13T02:31:07;2.33;;;0.95;;
2928;SDS011;1474;51.460;7.150;2023-07-13T02:33:36;4.25;;;1.05;;
2928;SDS011;1474;51.460;7.150;2023-07-13T02:36:02;1.45;;;0.77;;
2928;SDS011;1474;51.460;7.150;2023-07-13T02:38:30;4.47;;;1.00;;
2928;SDS011;1474;51.460;7.150;2023-07-13T02:43:27;1.38;;;0.70;;
2928;SDS011;1474;51.460;7.150;2023-07-13T02:45:54;2.92;;;0.98;;
2928;SDS011;1474;51.460;7.150;2023-07-13T02:48:20;2.65;;;1.20;;
2928;SDS011;1474;51.460;7.150;2023-07-13T02:50:46;3.95;;;1.00;;
2928;SDS011;1474;51.460;7.150;2023-07-13T02:53:12;2.20;;;1.10;;
2928;SDS011;1474;51.460;7.150;2023-07-13T02:55:38;2.65;;;0.90;;
2928;SDS011;1474;51.460;7.150;2023-07-13T02:58:05;3.63;;;1.02;;
2928;SDS011;1474;51.460;7.150;2023-07-13T03:00:32;5.95;;;2.10;;
2928;SDS011;1474;51.460;7.150;2023-07-13T03:02:57;2.60;;;0.90;;
2928;SDS011;1474;51.460;7.150;2023-07-13T03:05:23;4.60;;;1.17;;
2928;SDS011;1474;51.460;7.150;2023-07-13T03:07:49;3.15;;;0.90;;
2928;SDS011;1474;51.460;7.150;2023-07-13T03:10:15;3.83;;;1.30;;
2928;SDS011;1474;51.460;7.150;2023-07-13T03:12:41;3.50;;;1.05;;
2928;SDS011;1474;51.460;7.150;2023-07-13T03:15:07;2.78;;;1.00;;
2928;SDS011;1474;51.460;7.150;2023-07-13T03:17:34;2.92;;;1.20;;
2928;SDS011;1474;51.460;7.150;2023-07-13T03:20:00;2.80;;;0.77;;
2928;SDS011;1474;51.460;7.150;2023-07-13T03:22:25;4.78;;;1.10;;
2928;SDS011;1474;51.460;7.150;2023-07-13T03:24:51;5.95;;;2.58;;
2928;SDS011;1474;51.460;7.150;2023-07-13T03:27:17;1.35;;;1.05;;
2928;SDS011;1474;51.460;7.150;2023-07-13T03:29:43;3.53;;;1.35;;
2928;SDS011;1474;51.460;7.150;2023-07-13T03:32:09;3.45;;;1.05;;
2928;SDS011;1474;51.460;7.150;2023-07-13T03:34:35;5.38;;;2.38;;
2928;SDS011;1474;51.460;7.150;2023-07-13T03:37:01;3.03;;;0.90;;
2928;SDS011;1474;51.460;7.150;2023-07-13T03:39:26;1.95;;;1.10;;
2928;SDS011;1474;51.460;7.150;2023-07-13T03:41:52;2.08;;;1.20;;
2928;SDS011;1474;51.460;7.150;2023-07-13T03:44:18;2.35;;;0.82;;
2928;SDS011;1474;51.460;7.150;2023-07-13T03:46:44;2.92;;;1.00;;
2928;SDS011;1474;51.460;7.150;2023-07-13T03:49:10;3.50;;;1.17;;
2928;SDS011;1474;51.460;7.150;2023-07-13T03:51:37;5.57;;;1.25;;
2928;SDS011;1474;51.460;7.150;2023-07-13T03:54:03;2.30;;;1.00;;
2928;SDS011;1474;51.460;7.150;2023-07-13T03:56:29;4.47;;;0.90;;
2928;SDS011;1474;51.460;7.150;2023-07-13T03:58:55;2.38;;;1.02;;
2928;SDS011;1474;51.460;7.150;2023-07-13T04:01:22;3.67;;;1.15;;
2928;SDS011;1474;51.460;7.150;2023-07-13T04:03:52;3.17;;;1.02;;
2928;SDS011;1474;51.460;7.150;2023-07-13T04:06:19;1.58;;;0.90;;
2928;SDS011;1474;51.460;7.150;2023-07-13T04:11:18;3.03;;;1.20;;
2928;SDS011;1474;51.460;7.150;2023-07-13T04:13:46;3.35;;;1.02;;
2928;SDS011;1474;51.460;7.150;2023-07-13T04:16:13;2.25;;;0.90;;
2928;SDS011;1474;51.460;7.150;2023-07-13T04:18:41;3.20;;;1.05;;
2928;SDS011;1474;51.460;7.150;2023-07-13T04:21:07;2.20;;;1.00;;
2928;SDS011;1474;51.460;7.150;2023-07-13T04:23:34;3.97;;;1.00;;
2928;SDS011;1474;51.460;7.150;2023-07-13T04:26:01;2.42;;;0.80;;
2928;SDS011;1474;51.460;7.150;2023-07-13T04:28:27;4.00;;;1.50;;
2928;SDS011;1474;51.460;7.150;2023-07-13T04:30:53;2.83;;;1.40;;
2928;SDS011;1474;51.460;7.150;2023-07-13T04:33:20;3.55;;;1.05;;
2928;SDS011;1474;51.460;7.150;2023-07-13T04:35:51;3.00;;;0.80;;
2928;SDS011;1474;51.460;7.150;2023-07-13T04:38:21;4.22;;;1.30;;
2928;SDS011;1474;51.460;7.150;2023-07-13T04:40:59;4.25;;;1.30;;
2928;SDS011;1474;51.460;7.150;2023-07-13T04:43:28;2.08;;;1.23;;
2928;SDS011;1474;51.460;7.150;2023-07-13T04:45:56;1.83;;;1.23;;
2928;SDS011;1474;51.460;7.150;2023-07-13T04:48:23;3.75;;;1.20;;
2928;SDS011;1474;51.460;7.150;2023-07-13T04:50:55;2.88;;;1.08;;
2928;SDS011;1474;51.460;7.150;2023-07-13T04:53:23;2.55;;;1.23;;
2928;SDS011;1474;51.460;7.150;2023-07-13T04:55:50;5.00;;;0.98;;
2928;SDS011;1474;51.460;7.150;2023-07-13T04:58:16;2.63;;;1.05;;
2928;SDS011;1474;51.460;7.150;2023-07-13T05:00:42;4.68;;;1.20;;
2928;SDS011;1474;51.460;7.150;2023-07-13T05:03:08;3.65;;;1.17;;
2928;SDS011;1474;51.460;7.150;2023-07-13T05:05:34;3.75;;;0.90;;
2928;SDS011;1474;51.460;7.150;2023-07-13T05:08:00;3.05;;;1.25;;
2928;SDS011;1474;51.460;7.150;2023-07-13T05:10:26;2.60;;;1.13;;
2928;SDS011;1474;51.460;7.150;2023-07-13T05:12:52;5.35;;;1.25;;
2928;SDS011;1474;51.460;7.150;2023-07-13T05:15:18;1.88;;;1.20;;
2928;SDS011;1474;51.460;7.150;2023-07-13T05:17:47;5.32;;;1.75;;
2928;SDS011;1474;51.460;7.150;2023-07-13T05:20:14;1.98;;;0.98;;
2928;SDS011;1474;51.460;7.150;2023-07-13T05:22:42;3.35;;;1.27;;
2928;SDS011;1474;51.460;7.150;2023-07-13T05:25:08;8.45;;;2.00;;
2928;SDS011;1474;51.460;7.150;2023-07-13T05:27:35;4.35;;;1.10;;
2928;SDS011;1474;51.460;7.150;2023-07-13T05:30:02;4.03;;;1.65;;
2928;SDS011;1474;51.460;7.150;2023-07-13T05:32:29;4.05;;;1.00;;
2928;SDS011;1474;51.460;7.150;2023-07-13T05:34:54;5.70;;;1.70;;
2928;SDS011;1474;51.460;7.150;2023-07-13T05:37:20;4.30;;;1.30;;
2928;SDS011;1474;51.460;7.150;2023-07-13T05:39:46;8.10;;;2.05;;
2928;SDS011;1474;51.460;7.150;2023-07-13T05:42:12;5.68;;;1.67;;
2928;SDS011;1474;51.460;7.150;2023-07-13T05:44:38;2.92;;;1.25;;
2928;SDS011;1474;51.460;7.150;2023-07-13T05:47:04;3.95;;;1.15;;
2928;SDS011;1474;51.460;7.150;2023-07-13T05:49:30;3.78;;;1.10;;
2928;SDS011;1474;51.460;7.150;2023-07-13T05:51:56;4.55;;;1.67;;
2928;SDS011;1474;51.460;7.150;2023-07-13T05:54:22;4.70;;;1.65;;
2928;SDS011;1474;51.460;7.150;2023-07-13T05:56:48;8.00;;;1.60;;
2928;SDS011;1474;51.460;7.150;2023-07-13T05:59:13;2.53;;;1.50;;
2928;SDS011;1474;51.460;7.150;2023-07-13T06:01:39;3.08;;;1.60;;
2928;SDS011;1474;51.460;7.150;2023-07-13T06:04:06;5.22;;;1.83;;
2928;SDS011;1474;51.460;7.150;2023-07-13T06:06:32;8.20;;;1.75;;
2928;SDS011;1474;51.460;7.150;2023-07-13T06:08:58;2.08;;;1.48;;
2928;SDS011;1474;51.460;7.150;2023-07-13T06:11:25;4.10;;;1.63;;
2928;SDS011;1474;51.460;7.150;2023-07-13T06:13:52;3.42;;;1.50;;
2928;SDS011;1474;51.460;7.150;2023-07-13T06:16:19;3.20;;;1.05;;
2928;SDS011;1474;51.460;7.150;2023-07-13T06:18:45;5.35;;;1.70;;
2928;SDS011;1474;51.460;7.150;2023-07-13T06:21:15;5.32;;;1.83;;
2928;SDS011;1474;51.460;7.150;2023-07-13T06:23:44;4.20;;;1.55;;
2928;SDS011;1474;51.460;7.150;2023-07-13T06:28:40;7.40;;;2.10;;
2928;SDS011;1474;51.460;7.150;2023-07-13T06:31:07;4.78;;;1.55;;
2928;SDS011;1474;51.460;7.150;2023-07-13T06:33:35;5.63;;;2.20;;
2928;SDS011;1474;51.460;7.150;2023-07-13T06:36:02;4.60;;;1.40;;
2928;SDS011;1474;51.460;7.150;2023-07-13T06:38:30;3.45;;;1.63;;
2928;SDS011;1474;51.460;7.150;2023-07-13T06:40:56;5.25;;;1.80;;
2928;SDS011;1474;51.460;7.150;2023-07-13T06:43:23;5.40;;;1.60;;
2928;SDS011;1474;51.460;7.150;2023-07-13T06:45:50;4.63;;;1.77;;
2928;SDS011;1474;51.460;7.150;2023-07-13T06:48:17;5.85;;;1.70;;
2928;SDS011;1474;51.460;7.150;2023-07-13T06:50:44;5.15;;;1.90;;
2928;SDS011;1474;51.460;7.150;2023-07-13T06:53:11;5.43;;;1.98;;
2928;SDS011;1474;51.460;7.150;2023-07-13T06:55:38;2.45;;;1.33;;
2928;SDS011;1474;51.460;7.150;2023-07-13T06:58:04;3.65;;;1.90;;
2928;SDS011;1474;51.460;7.150;2023-07-13T07:00:31;6.55;;;1.77;;
2928;SDS011;1474;51.460;7.150;2023-07-13T07:02:57;4.38;;;1.38;;
2928;SDS011;1474;51.460;7.150;2023-07-13T07:05:23;7.60;;;2.40;;
2928;SDS011;1474;51.460;7.150;2023-07-13T07:07:52;6.82;;;1.85;;
2928;SDS011;1474;51.460;7.150;2023-07-13T07:10:20;6.45;;;1.70;;
2928;SDS011;1474;51.460;7.150;2023-07-13T07:12:46;5.90;;;1.95;;
2928;SDS011;1474;51.460;7.150;2023-07-13T07:15:12;8.45;;;2.00;;
2928;SDS011;1474;51.460;7.150;2023-07-13T07:17:39;4.25;;;1.75;;
2928;SDS011;1474;51.460;7.150;2023-07-13T07:20:05;4.18;;;1.77;;
2928;SDS011;1474;51.460;7.150;2023-07-13T07:22:31;6.28;;;2.13;;
2928;SDS011;1474;51.460;7.150;2023-07-13T07:24:59;5.72;;;2.35;;
2928;SDS011;1474;51.460;7.150;2023-07-13T07:27:25;6.65;;;2.22;;
2928;SDS011;1474;51.460;7.150;2023-07-13T07:29:51;5.13;;;2.40;;
2928;SDS011;1474;51.460;7.150;2023-07-13T07:32:18;6.82;;;2.00;;
2928;SDS011;1474;51.460;7.150;2023-07-13T07:34:45;4.40;;;2.08;;
2928;SDS011;1474;51.460;7.150;2023-07-13T07:37:11;4.25;;;1.80;;
2928;SDS011;1474;51.460;7.150;2023-07-13T07:39:39;4.75;;;1.48;;
2928;SDS011;1474;51.460;7.150;2023-07-13T07:42:05;5.40;;;2.28;;
2928;SDS011;1474;51.460;7.150;2023-07-13T07:44:32;7.03;;;1.90;;
2928;SDS011;1474;51.460;7.150;2023-07-13T07:46:59;7.15;;;2.00;;
2928;SDS011;1474;51.460;7.150;2023-07-13T07:49:25;8.50;;;2.15;;
2928;SDS011;1474;51.460;7.150;2023-07-13T07:51:51;7.32;;;2.42;;
2928;SDS011;1474;51.460;7.150;2023-07-13T07:54:17;5.93;;;1.88;;
2928;SDS011;1474;51.460;7.150;2023-07-13T07:56:44;5.63;;;2.25;;
2928;SDS011;1474;51.460;7.150;2023-07-13T07:59:10;5.85;;;2.25;;
2928;SDS011;1474;51.460;7.150;2023-07-13T08:01:36;3.88;;;1.65;;
2928;SDS011;1474;51.460;7.150;2023-07-13T08:04:02;7.00;;;3.08;;
2928;SDS011;1474;51.460;7.150;2023-07-13T08:06:28;7.22;;;2.42;;
2928;SDS011;1474;51.460;7.150;2023-07-13T08:08:54;3.85;;;2.58;;
2928;SDS011;1474;51.460;7.150;2023-07-13T08:11:21;6.60;;;2.20;;
2928;SDS011;1474;51.460;7.150;2023-07-13T08:13:47;6.75;;;2.20;;
2928;SDS011;1474;51.460;7.150;2023-07-13T08:16:14;4.75;;;2.17;;
2928;SDS011;1474;51.460;7.150;2023-07-13T08:18:40;5.72;;;2.10;;
2928;SDS011;1474;51.460;7.150;2023-07-13T08:21:06;3.10;;;1.70;;
2928;SDS011;1474;51.460;7.150;2023-07-13T08:23:34;3.42;;;1.75;;
2928;SDS011;1474;51.460;7.150;2023-07-13T08:26:01;3.60;;;2.00;;
2928;SDS011;1474;51.460;7.150;2023-07-13T08:28:29;5.13;;;1.90;;
2928;SDS011;1474;51.460;7.150;2023-07-13T08:30:59;2.95;;;1.77;;
2928;SDS011;1474;51.460;7.150;2023-07-13T08:33:30;4.43;;;1.85;;
2928;SDS011;1474;51.460;7.150;2023-07-13T08:35:56;2.88;;;1.80;;
2928;SDS011;1474;51.460;7.150;2023-07-13T08:38:22;4.22;;;1.90;;
2928;SDS011;1474;51.460;7.150;2023-07-13T08:40:53;4.85;;;2.08;;
2928;SDS011;1474;51.460;7.150;2023-07-13T08:43:33;4.97;;;2.38;;
2928;SDS011;1474;51.460;7.150;2023-07-13T08:46:05;6.10;;;2.15;;
2928;SDS011;1474;51.460;7.150;2023-07-13T08:48:47;4.07;;;1.70;;
2928;SDS011;1474;51.460;7.150;2023-07-13T08:53:58;9.25;;;1.98;;
2928;SDS011;1474;51.460;7.150;2023-07-13T08:56:40;3.03;;;1.60;;
2928;SDS011;1474;51.460;7.150;2023-07-13T08:59:16;3.25;;;1.90;;
2928;SDS011;1474;51.460;7.150;2023-07-13T09:04:52;3.50;;;1.88;;
2928;SDS011;1474;51.460;7.150;2023-07-13T09:10:28;6.13;;;1.98;;
2928;SDS011;1474;51.460;7.150;2023-07-13T09:15:56;3.60;;;1.50;;
2928;SDS011;1474;51.460;7.150;2023-07-13T09:18:28;5.15;;;1.70;;
2928;SDS011;1474;51.460;7.150;2023-07-13T09:21:08;3.85;;;1.50;;
2928;SDS011;1474;51.460;7.150;2023-07-13T09:23:37;8.73;;;2.42;;
2928;SDS011;1474;51.460;7.150;2023-07-13T09:26:05;5.40;;;1.98;;
2928;SDS011;1474;51.460;7.150;2023-07-13T09:28:45;4.93;;;1.98;;
2928;SDS011;1474;51.460;7.150;2023-07-13T09:31:28;6.43;;;1.83;;
2928;SDS011;1474;51.460;7.150;2023-07-13T09:34:06;5.05;;;1.77;;
2928;SDS011;1474;51.460;7.150;2023-07-13T09:36:38;5.38;;;1.50;;
2928;SDS011;1474;51.460;7.150;2023-07-13T09:41:51;2.78;;;1.48;;
2928;SDS011;1474;51.460;7.150;2023-07-13T09:44:34;4.28;;;1.73;;
2928;SDS011;1474;51.460;7.150;2023-07-13T09:47:17;5.50;;;1.90;;
2928;SDS011;1474;51.460;7.150;2023-07-13T09:49:48;3.25;;;1.50;;
2928;SDS011;1474;51.460;7.150;2023-07-13T09:52:25;5.22;;;1.45;;
2928;SDS011;1474;51.460;7.150;2023-07-13T09:54:53;4.80;;;1.90;;
2928;SDS011;1474;51.460;7.150;2023-07-13T09:57:25;3.05;;;1.50;;
2928;SDS011;1474;51.460;7.150;2023-07-13T09:59:53;7.35;;;1.60;;
2928;SDS011;1474;51.460;7.150;2023-07-13T10:02:26;4.80;;;1.83;;
2928;SDS011;1474;51.460;7.150;2023-07-13T10:07:39;5.07;;;1.60;;
2928;SDS011;1474;51.460;7.150;2023-07-13T10:12:45;3.40;;;1.35;;
2928;SDS011;1474;51.460;7.150;2023-07-13T10:15:16;5.07;;;1.58;;
2928;SDS011;1474;51.460;7.150;2023-07-13T10:17:46;2.92;;;1.42;;
2928;SDS011;1474;51.460;7.150;2023-07-13T10:20:15;4.55;;;1.95;;
2928;SDS011;1474;51.460;7.150;2023-07-13T10:22:55;3.45;;;1.40;;
2928;SDS011;1474;51.460;7.150;2023-07-13T10:25:28;3.30;;;1.40;;
2928;SDS011;1474;51.460;7.150;2023-07-13T10:28:10;2.65;;;1.88;;
2928;SDS011;1474;51.460;7.150;2023-07-13T10:31:13;4.18;;;1.55;;
2928;SDS011;1474;51.460;7.150;2023-07-13T10:33:41;4.68;;;1.90;;
2928;SDS011;1474;51.460;7.150;2023-07-13T10:38:47;3.50;;;1.48;;
2928;SDS011;1474;51.460;7.150;2023-07-13T10:41:17;5.70;;;1.75;;
2928;SDS011;1474;51.460;7.150;2023-07-13T10:43:48;4.30;;;1.85;;
2928;SDS011;1474;51.460;7.150;2023-07-13T10:46:20;4.68;;;1.63;;
2928;SDS011;1474;51.460;7.150;2023-07-13T10:48:52;7.40;;;1.98;;
2928;SDS011;1474;51.460;7.150;2023-07-13T10:51:27;3.38;;;1.60;;
2928;SDS011;1474;51.460;7.150;2023-07-13T11:02:42;3.75;;;1.80;;
2928;SDS011;1474;51.460;7.150;2023-07-13T11:07:55;3.15;;;1.48;;
2928;SDS011;1474;51.460;7.150;2023-07-13T11:13:58;2.42;;;1.40;;
2928;SDS011;1474;51.460;7.150;2023-07-13T11:17:04;3.35;;;1.83;;
2928;SDS011;1474;51.460;7.150;2023-07-13T11:27:42;3.15;;;1.60;;
2928;SDS011;1474;51.460;7.150;2023-07-13T11:38:39;3.33;;;1.40;;
2928;SDS011;1474;51.460;7.150;2023-07-13T11:41:17;4.18;;;1.70;;
2928;SDS011;1474;51.460;7.150;2023-07-13T11:43:53;3.45;;;1.38;;
2928;SDS011;1474;51.460;7.150;2023-07-13T11:46:25;3.40;;;1.50;;
2928;SDS011;1474;51.460;7.150;2023-07-13T11:48:53;5.43;;;2.17;;
2928;SDS011;1474;51.460;7.150;2023-07-13T11:51:23;4.35;;;1.60;;
2928;SDS011;1474;51.460;7.150;2023-07-13T11:54:00;5.07;;;1.77;;
2928;SDS011;1474;51.460;7.150;2023-07-13T11:56:30;4.00;;;1.98;;
2928;SDS011;1474;51.460;7.150;2023-07-13T11:58:59;5.13;;;1.70;;
2928;SDS011;1474;51.460;7.150;2023-07-13T12:01:33;5.18;;;1.25;;
2928;SDS011;1474;51.460;7.150;2023-07-13T12:04:08;4.80;;;1.33;;
2928;SDS011;1474;51.460;7.150;2023-07-13T12:06:56;4.28;;;1.38;;
2928;SDS011;1474;51.460;7.150;2023-07-13T12:09:29;4.68;;;1.45;;
2928;SDS011;1474;51.460;7.150;2023-07-13T12:11:56;5.63;;;1.65;;
2928;SDS011;1474;51.460;7.150;2023-07-13T12:14:25;4.18;;;1.50;;
2928;SDS011;1474;51.460;7.150;2023-07-13T12:16:51;2.38;;;1.20;;
2928;SDS011;1474;51.460;7.150;2023-07-13T12:19:20;4.00;;;1.42;;
2928;SDS011;1474;51.460;7.150;2023-07-13T12:21:53;5.40;;;1.67;;
2928;SDS011;1474;51.460;7.150;2023-07-13T12:26:53;2.45;;;1.10;;
2928;SDS011;1474;51.460;7.150;2023-07-13T12:29:29;3.30;;;1.27;;
2928;SDS011;1474;51.460;7.150;2023-07-13T12:31:57;3.90;;;2.50;;
2928;SDS011;1474;51.460;7.150;2023-07-13T12:34:24;2.42;;;1.20;;
2928;SDS011;1474;51.460;7.150;2023-07-13T12:36:55;6.70;;;2.15;;
2928;SDS011;1474;51.460;7.150;2023-07-13T12:39:37;3.15;;;1.20;;
2928;SDS011;1474;51.460;7.150;2023-07-13T12:42:20;2.85;;;1.20;;
2928;SDS011;1474;51.460;7.150;2023-07-13T12:44:57;2.95;;;1.20;;
2928;SDS011;1474;51.460;7.150;2023-07-13T12:47:28;2.95;;;1.20;;
2928;SDS011;1474;51.460;7.150;2023-07-13T12:49:55;2.17;;;1.13;;
2928;SDS011;1474;51.460;7.150;2023-07-13T12:52:33;2.78;;;1.50;;
2928;SDS011;1474;51.460;7.150;2023-07-13T12:55:09;3.97;;;1.17;;
2928;SDS011;1474;51.460;7.150;2023-07-13T12:57:51;3.28;;;1.10;;
2928;SDS011;1474;51.460;7.150;2023-07-13T13:00:35;4.10;;;1.50;;
2928;SDS011;1474;51.460;7.150;2023-07-13T13:03:21;3.97;;;1.15;;
2928;SDS011;1474;51.460;7.150;2023-07-13T13:05:58;3.53;;;1.25;;
2928;SDS011;1474;51.460;7.150;2023-07-13T13:08:46;3.00;;;1.02;;
2928;SDS011;1474;51.460;7.150;2023-07-13T13:11:15;3.92;;;1.15;;
2928;SDS011;1474;51.460;7.150;2023-07-13T13:13:45;2.35;;;1.13;;
2928;SDS011;1474;51.460;7.150;2023-07-13T13:18:47;4.20;;;1.00;;
2928;SDS011;1474;51.460;7.150;2023-07-13T13:21:15;4.80;;;1.35;;
2928;SDS011;1474;51.460;7.150;2023-07-13T13:23:43;3.72;;;1.13;;
2928;SDS011;1474;51.460;7.150;2023-07-13T13:26:11;3.50;;;1.33;;
2928;SDS011;1474;51.460;7.150;2023-07-13T13:28:40;3.40;;;1.10;;
2928;SDS011;1474;51.460;7.150;2023-07-13T13:31:09;2.97;;;1.05;;
2928;SDS011;1474;51.460;7.150;2023-07-13T13:33:42;4.35;;;1.73;;
2928;SDS011;1474;51.460;7.150;2023-07-13T13:36:17;4.60;;;1.58;;
2928;SDS011;1474;51.460;7.150;2023-07-13T13:38:47;6.25;;;1.58;;
2928;SDS011;1474;51.460;7.150;2023-07-13T13:41:15;5.25;;;1.77;;
2928;SDS011;1474;51.460;7.150;2023-07-13T13:43:42;4.80;;;1.63;;
2928;SDS011;1474;51.460;7.150;2023-07-13T13:48:47;3.55;;;2.13;;
2928;SDS011;1474;51.460;7.150;2023-07-13T13:51:20;4.65;;;2.22;;
2928;SDS011;1474;51.460;7.150;2023-07-13T13:53:48;2.78;;;1.92;;
2928;SDS011;1474;51.460;7.150;2023-07-13T13:56:15;6.18;;;2.00;;
2928;SDS011;1474;51.460;7.150;2023-07-13T13:58:44;4.30;;;1.77;;
2928;SDS011;1474;51.460;7.150;2023-07-13T14:01:18;3.70;;;1.95;;
2928;SDS011;1474;51.460;7.150;2023-07-13T14:03:46;5.97;;;1.98;;
2928;SDS011;1474;51.460;7.150;2023-07-13T14:06:13;4.03;;;1.90;;
2928;SDS011;1474;51.460;7.150;2023-07-13T14:08:41;2.88;;;2.28;;
2928;SDS011;1474;51.460;7.150;2023-07-13T14:11:14;4.22;;;2.35;;
2928;SDS011;1474;51.460;7.150;2023-07-13T14:13:51;5.68;;;2.35;;
2928;SDS011;1474;51.460;7.150;2023-07-13T14:16:21;5.32;;;1.85;;
2928;SDS011;1474;51.460;7.150;2023-07-13T14:18:53;5.20;;;2.47;;
2928;SDS011;1474;51.460;7.150;2023-07-13T14:21:20;4.90;;;2.10;;
2928;SDS011;1474;51.460;7.150;2023-07-13T14:23:47;6.13;;;2.55;;
2928;SDS011;1474;51.460;7.150;2023-07-13T14:26:16;3.88;;;2.50;;
2928;SDS011;1474;51.460;7.150;2023-07-13T14:28:49;6.32;;;2.40;;
2928;SDS011;1474;51.460;7.150;2023-07-13T14:31:21;5.82;;;3.00;;
2928;SDS011;1474;51.460;7.150;2023-07-13T14:33:49;7.95;;;3.72;;
2928;SDS011;1474;51.460;7.150;2023-07-13T14:36:29;7.68;;;3.58;;
2928;SDS011;1474;51.460;7.150;2023-07-13T14:39:00;8.73;;;3.40;;
2928;SDS011;1474;51.460;7.150;2023-07-13T14:41:36;5.18;;;2.95;;
2928;SDS011;1474;51.460;7.150;2023-07-13T14:44:07;4.43;;;2.95;;
2928;SDS011;1474;51.460;7.150;2023-07-13T14:46:40;5.93;;;2.80;;
2928;SDS011;1474;51.460;7.150;2023-07-13T14:52:09;4.88;;;3.13;;
2928;SDS011;1474;51.460;7.150;2023-07-13T14:54:46;5.88;;;2.60;;
2928;SDS011;1474;51.460;7.150;2023-07-13T14:57:12;5.05;;;3.22;;
2928;SDS011;1474;51.460;7.150;2023-07-13T14:59:43;5.43;;;3.13;;
2928;SDS011;1474;51.460;7.150;2023-07-13T15:04:43;6.63;;;3.35;;
2928;SDS011;1474;51.460;7.150;2023-07-13T15:07:10;4.88;;;2.72;;
2928;SDS011;1474;51.460;7.150;2023-07-13T15:09:38;6.32;;;3.10;;
2928;SDS011;1474;51.460;7.150;2023-07-13T15:12:04;3.90;;;2.60;;
2928;SDS011;1474;51.460;7.150;2023-07-13T15:14:30;6.20;;;2.72;;
2928;SDS011;1474;51.460;7.150;2023-07-13T15:16:57;4.03;;;2.75;;
2928;SDS011;1474;51.460;7.150;2023-07-13T15:19:23;5.68;;;2.30;;
2928;SDS011;1474;51.460;7.150;2023-07-13T15:21:51;6.45;;;3.15;;
2928;SDS011;1474;51.460;7.150;2023-07-13T15:24:19;5.25;;;2.70;;
2928;SDS011;1474;51.460;7.150;2023-07-13T15:26:46;4.00;;;2.83;;
2928;SDS011;1474;51.460;7.150;2023-07-13T15:29:14;5.18;;;3.08;;
2928;SDS011;1474;51.460;7.150;2023-07-13T15:31:43;4.85;;;2.63;;
2928;SDS011;1474;51.460;7.150;2023-07-13T15:34:13;4.20;;;2.65;;
2928;SDS011;1474;51.460;7.150;2023-07-13T15:36:44;5.47;;;2.90;;
2928;SDS011;1474;51.460;7.150;2023-07-13T15:39:13;4.13;;;3.70;;
2928;SDS011;1474;51.460;7.150;2023-07-13T15:41:41;5.20;;;3.25;;
2928;SDS011;1474;51.460;7.150;2023-07-13T15:44:28;4.15;;;2.60;;
2928;SDS011;1474;51.460;7.150;2023-07-13T15:46:57;4.00;;;2.90;;
2928;SDS011;1474;51.460;7.150;2023-07-13T15:49:25;4.20;;;3.03;;
2928;SDS011;1474;51.460;7.150;2023-07-13T15:51:51;4.38;;;3.53;;
2928;SDS011;1474;51.460;7.150;2023-07-13T15:54:18;6.45;;;3.60;;
2928;SDS011;1474;51.460;7.150;2023-07-13T15:56:45;6.43;;;3.33;;
2928;SDS011;1474;51.460;7.150;2023-07-13T15:59:18;6.75;;;2.22;;
2928;SDS011;1474;51.460;7.150;2023-07-13T16:01:44;8.90;;;2.85;;
2928;SDS011;1474;51.460;7.150;2023-07-13T16:04:11;5.68;;;2.53;;
2928;SDS011;1474;51.460;7.150;2023-07-13T16:06:39;3.83;;;1.98;;
2928;SDS011;1474;51.460;7.150;2023-07-13T16:09:06;2.63;;;2.25;;
2928;SDS011;1474;51.460;7.150;2023-07-13T16:11:41;5.40;;;2.35;;
2928;SDS011;1474;51.460;7.150;2023-07-13T16:14:08;5.65;;;2.58;;
2928;SDS011;1474;51.460;7.150;2023-07-13T16:16:39;3.83;;;1.85;;
2928;SDS011;1474;51.460;7.150;2023-07-13T16:19:05;4.47;;;2.63;;
2928;SDS011;1474;51.460;7.150;2023-07-13T16:21:32;3.38;;;2.05;;
2928;SDS011;1474;51.460;7.150;2023-07-13T16:24:08;5.35;;;2.08;;
2928;SDS011;1474;51.460;7.150;2023-07-13T16:26:45;2.97;;;2.30;;
2928;SDS011;1474;51.460;7.150;2023-07-13T16:29:13;4.00;;;2.45;;
2928;SDS011;1474;51.460;7.150;2023-07-13T16:31:54;7.30;;;3.42;;
2928;SDS011;1474;51.460;7.150;2023-07-13T16:34:39;4.78;;;2.58;;
2928;SDS011;1474;51.460;7.150;2023-07-13T16:37:12;3.78;;;2.30;;
2928;SDS011;1474;51.460;7.150;2023-07-13T16:39:39;5.03;;;2.63;;
2928;SDS011;1474;51.460;7.150;2023-07-13T16:42:10;3.25;;;2.60;;
2928;SDS011;1474;51.460;7.150;2023-07-13T16:44:36;5.70;;;3.05;;
2928;SDS011;1474;51.460;7.150;2023-07-13T16:47:05;2.65;;;2.35;;
2928;SDS011;1474;51.460;7.150;2023-07-13T16:49:38;3.75;;;2.05;;